createdAt,value
2018-07-05T00:01:44.824Z,3.85
2018-07-05T00:04:24.196Z,3.02
2018-07-05T00:07:03.599Z,4.15
2018-07-05T00:09:43.030Z,4.28
2018-07-05T00:12:22.628Z,3.80
2018-07-05T00:15:02.132Z,3.95
2018-07-05T00:17:41.456Z,3.85
2018-07-05T00:20:21.064Z,3.90
2018-07-05T00:23:00.577Z,3.77
2018-07-05T00:25:39.991Z,4.05
2018-07-05T00:28:19.393Z,3.67
2018-07-05T00:30:58.730Z,3.62
2018-07-05T00:33:38.196Z,3.80
2018-07-05T00:36:17.881Z,3.90
2018-07-05T00:38:57.349Z,3.67
2018-07-05T00:41:36.725Z,3.67
2018-07-05T00:44:16.290Z,3.55
2018-07-05T00:46:56.651Z,3.83
2018-07-05T00:49:36.146Z,3.65
2018-07-05T00:52:15.596Z,3.87
2018-07-05T00:54:55.156Z,4.08
2018-07-05T00:57:34.702Z,3.35
2018-07-05T01:00:14.263Z,4.78
2018-07-05T01:02:53.778Z,3.95
2018-07-05T01:05:33.311Z,3.85
2018-07-05T01:08:12.782Z,3.65
2018-07-05T01:10:52.456Z,3.37
2018-07-05T01:13:31.994Z,4.30
2018-07-05T01:16:11.455Z,4.65
2018-07-05T01:18:51.108Z,4.25
2018-07-05T01:21:30.688Z,3.98
2018-07-05T01:24:10.287Z,4.28
2018-07-05T01:26:49.836Z,4.12
2018-07-05T01:29:29.309Z,4.35
2018-07-05T01:32:08.928Z,3.87
2018-07-05T01:34:48.494Z,4.00
2018-07-05T01:37:27.972Z,4.97
2018-07-05T01:40:07.552Z,4.97
2018-07-05T01:42:47.030Z,5.05
2018-07-05T01:45:26.491Z,4.87
2018-07-05T01:48:06.024Z,4.65
2018-07-05T01:50:45.592Z,4.15
2018-07-05T01:53:25.137Z,4.40
2018-07-05T01:56:04.696Z,4.62
2018-07-05T01:58:44.260Z,4.05
2018-07-05T02:01:23.867Z,4.20
2018-07-05T02:04:03.405Z,4.70
2018-07-05T02:06:42.945Z,6.42
2018-07-05T02:09:22.264Z,6.30
2018-07-05T02:12:01.761Z,7.15
2018-07-05T02:14:41.161Z,6.10
2018-07-05T02:17:20.652Z,5.80
2018-07-05T02:20:00.089Z,6.28
2018-07-05T02:22:39.645Z,5.97
2018-07-05T02:25:19.160Z,5.10
2018-07-05T02:27:58.672Z,5.53
2018-07-05T02:30:38.228Z,5.33
2018-07-05T02:33:17.831Z,4.80
2018-07-05T02:35:57.365Z,5.62
2018-07-05T02:38:37.041Z,6.12
2018-07-05T02:41:16.583Z,6.50
2018-07-05T02:43:56.148Z,6.40
2018-07-05T02:46:35.585Z,6.22
2018-07-05T02:49:15.110Z,5.60
2018-07-05T02:51:54.720Z,5.65
2018-07-05T02:54:34.158Z,6.28
2018-07-05T02:57:13.586Z,6.10
2018-07-05T02:59:53.094Z,6.00
2018-07-05T03:02:32.623Z,5.78
2018-07-05T03:05:12.169Z,5.90
2018-07-05T03:07:51.602Z,5.83
2018-07-05T03:10:31.118Z,6.70
2018-07-05T03:13:10.707Z,6.30
2018-07-05T03:15:50.242Z,5.45
2018-07-05T03:18:29.797Z,5.22
2018-07-05T03:21:09.724Z,6.45
2018-07-05T03:23:49.277Z,5.40
2018-07-05T03:26:28.703Z,5.60
2018-07-05T03:29:08.253Z,4.55
2018-07-05T03:31:47.819Z,5.28
2018-07-05T03:34:27.245Z,5.55
2018-07-05T03:37:06.794Z,5.60
2018-07-05T03:39:46.320Z,4.78
2018-07-05T03:42:25.875Z,5.08
2018-07-05T03:45:05.373Z,5.08
2018-07-05T03:47:44.973Z,3.72
2018-07-05T03:50:24.474Z,5.53
2018-07-05T03:53:04.024Z,4.60
2018-07-05T03:55:43.539Z,4.90
2018-07-05T03:58:23.123Z,5.10
2018-07-05T04:01:02.655Z,4.95
2018-07-05T04:03:41.992Z,5.40
2018-07-05T04:06:21.634Z,5.58
2018-07-05T04:09:01.262Z,4.62
2018-07-05T04:11:40.811Z,5.20
2018-07-05T04:14:20.297Z,5.30
2018-07-05T04:16:59.763Z,4.35
2018-07-05T04:19:42.597Z,4.65
2018-07-05T04:22:22.147Z,5.97
2018-07-05T04:25:01.638Z,5.85
2018-07-05T04:27:41.121Z,5.83
2018-07-05T04:30:20.602Z,4.92
2018-07-05T04:33:00.158Z,4.87
2018-07-05T04:35:39.571Z,4.72
2018-07-05T04:38:19.060Z,4.60
2018-07-05T04:40:58.700Z,5.12
2018-07-05T04:43:38.205Z,5.37
2018-07-05T04:46:17.684Z,5.90
2018-07-05T04:48:57.153Z,5.17
2018-07-05T04:51:36.889Z,4.67
2018-07-05T04:54:16.276Z,5.28
2018-07-05T04:56:55.719Z,4.40
2018-07-05T05:02:25.498Z,4.77
2018-07-05T05:05:04.839Z,4.08
2018-07-05T05:07:43.641Z,4.00
2018-07-05T05:10:23.089Z,3.63
2018-07-05T05:13:02.522Z,3.67
2018-07-05T05:15:42.108Z,4.65
2018-07-05T05:18:21.676Z,4.67
2018-07-05T05:21:01.134Z,4.20
2018-07-05T05:23:40.826Z,4.30
2018-07-05T05:26:20.304Z,4.53
2018-07-05T05:28:59.849Z,4.00
2018-07-05T05:31:39.288Z,3.90
2018-07-05T05:34:18.829Z,4.37
2018-07-05T05:36:58.372Z,4.53
2018-07-05T05:39:37.877Z,4.13
2018-07-05T05:42:17.351Z,4.30
2018-07-05T05:44:57.158Z,3.80
2018-07-05T05:47:36.583Z,3.97
2018-07-05T05:50:15.954Z,4.10
2018-07-05T05:52:55.576Z,3.53
2018-07-05T05:55:35.597Z,3.70
2018-07-05T05:58:15.039Z,2.50
2018-07-05T06:00:54.555Z,2.93
2018-07-05T06:03:34.095Z,3.53
2018-07-05T06:06:13.561Z,3.57
2018-07-05T06:08:53.034Z,2.70
2018-07-05T06:11:32.737Z,3.37
2018-07-05T06:14:12.336Z,2.93
2018-07-05T06:16:53.020Z,2.97
2018-07-05T06:19:32.818Z,2.73
2018-07-05T06:22:12.249Z,1.83
2018-07-05T06:24:51.821Z,2.40
2018-07-05T06:27:31.447Z,2.90
2018-07-05T06:30:10.989Z,2.70
2018-07-05T06:32:50.716Z,3.83
2018-07-05T06:35:30.595Z,2.90
2018-07-05T06:38:10.148Z,2.60
2018-07-05T06:40:49.691Z,3.00
2018-07-05T06:43:29.119Z,3.40
2018-07-05T06:46:08.781Z,3.70
2018-07-05T06:48:48.303Z,2.93
2018-07-05T06:51:27.756Z,4.83
2018-07-05T06:54:07.376Z,3.37
2018-07-05T06:56:47.093Z,2.83
2018-07-05T06:59:26.569Z,3.13
2018-07-05T07:02:06.301Z,3.83
2018-07-05T07:04:45.708Z,3.07
2018-07-05T07:07:25.160Z,3.30
2018-07-05T07:10:04.484Z,3.23
2018-07-05T07:12:43.933Z,3.27
2018-07-05T07:15:23.520Z,3.20
2018-07-05T07:18:04.089Z,4.00
2018-07-05T07:20:44.830Z,3.10
2018-07-05T07:23:24.465Z,3.77
2018-07-05T07:26:03.852Z,3.17
2018-07-05T07:28:43.455Z,3.20
2018-07-05T07:31:22.949Z,3.30
2018-07-05T07:34:04.196Z,3.60
2018-07-05T07:36:43.692Z,2.83
2018-07-05T07:39:23.227Z,2.80
2018-07-05T07:41:51.312Z,2.97
2018-07-05T07:44:19.904Z,2.80
2018-07-05T07:46:47.854Z,3.40
2018-07-05T07:49:15.576Z,2.80
2018-07-05T07:51:42.928Z,3.10
2018-07-05T07:54:10.256Z,2.93
2018-07-05T07:56:37.485Z,3.70
2018-07-05T07:59:04.713Z,3.80
2018-07-05T08:01:32.040Z,3.30
2018-07-05T08:03:59.263Z,3.97
2018-07-05T08:06:26.486Z,3.93
2018-07-05T08:08:53.756Z,3.10
2018-07-05T08:11:20.997Z,3.67
2018-07-05T08:13:48.309Z,3.03
2018-07-05T08:16:15.506Z,3.63
2018-07-05T08:18:42.855Z,3.67
2018-07-05T08:21:10.108Z,3.07
2018-07-05T08:23:37.366Z,3.43
2018-07-05T08:26:04.612Z,3.90
2018-07-05T08:28:31.828Z,3.57
2018-07-05T08:30:59.025Z,4.00
2018-07-05T08:33:26.265Z,4.20
2018-07-05T08:35:53.485Z,3.30
2018-07-05T08:38:20.734Z,3.50
2018-07-05T08:40:47.936Z,4.00
2018-07-05T08:43:15.136Z,4.03
2018-07-05T08:45:42.372Z,4.63
2018-07-05T08:48:09.588Z,4.07
2018-07-05T08:50:36.829Z,4.20
2018-07-05T08:53:04.311Z,4.17
2018-07-05T08:55:31.574Z,4.70
2018-07-05T08:57:58.869Z,4.53
2018-07-05T09:00:26.157Z,4.73
2018-07-05T09:02:53.411Z,5.50
2018-07-05T09:05:20.738Z,5.00
2018-07-05T09:07:47.885Z,5.93
2018-07-05T09:10:15.073Z,5.27
2018-07-05T09:12:42.426Z,5.63
2018-07-05T09:15:09.845Z,5.87
2018-07-05T09:17:37.178Z,5.53
2018-07-05T09:20:04.323Z,6.40
2018-07-05T09:22:38.456Z,5.20
2018-07-05T09:25:05.704Z,4.53
2018-07-05T09:27:32.986Z,5.40
2018-07-05T09:30:00.257Z,5.13
2018-07-05T09:32:27.512Z,4.77
2018-07-05T09:34:54.739Z,4.40
2018-07-05T09:37:22.017Z,4.03
2018-07-05T09:39:49.254Z,4.13
2018-07-05T09:42:16.477Z,3.50
2018-07-05T09:44:43.753Z,2.83
2018-07-05T09:47:11.006Z,4.00
2018-07-05T09:49:38.236Z,3.90
2018-07-05T09:52:05.457Z,4.00
2018-07-05T09:54:32.716Z,4.07
2018-07-05T09:56:59.949Z,3.47
2018-07-05T09:59:27.176Z,2.87
2018-07-05T10:01:54.413Z,2.97
2018-07-05T10:04:21.611Z,3.20
2018-07-05T10:06:48.829Z,3.60
2018-07-05T10:09:16.061Z,3.60
2018-07-05T10:11:43.564Z,3.53
2018-07-05T10:14:10.822Z,3.73
2018-07-05T10:16:38.119Z,3.80
2018-07-05T10:19:05.312Z,2.90
2018-07-05T10:21:32.515Z,3.40
2018-07-05T10:24:14.107Z,2.93
2018-07-05T10:26:41.736Z,3.07
2018-07-05T10:29:21.335Z,3.10
2018-07-05T10:32:01.100Z,2.60
2018-07-05T10:34:28.328Z,2.97
2018-07-05T10:36:55.573Z,2.60
2018-07-05T10:39:22.789Z,2.83
2018-07-05T10:42:02.361Z,2.60
2018-07-05T10:44:41.809Z,2.63
2018-07-05T10:47:21.334Z,2.07
2018-07-05T10:50:00.818Z,2.40
2018-07-05T10:52:40.195Z,2.20
2018-07-05T10:55:21.427Z,2.30
2018-07-05T10:58:01.165Z,2.57
2018-07-05T11:00:40.731Z,2.63
2018-07-05T11:03:20.366Z,2.90
2018-07-05T11:05:59.953Z,2.80
2018-07-05T11:08:39.446Z,2.60
2018-07-05T11:11:19.031Z,2.20
2018-07-05T11:13:58.466Z,2.63
2018-07-05T11:16:38.005Z,1.97
2018-07-05T11:19:17.630Z,2.20
2018-07-05T11:21:57.173Z,2.60
2018-07-05T11:24:36.781Z,2.43
2018-07-05T11:27:16.494Z,2.40
2018-07-05T11:29:55.893Z,2.63
2018-07-05T11:32:35.340Z,2.70
2018-07-05T11:35:15.252Z,2.90
2018-07-05T11:37:55.009Z,2.63
2018-07-05T11:40:34.492Z,2.93
2018-07-05T11:43:14.029Z,3.40
2018-07-05T11:45:53.431Z,3.77
2018-07-05T11:48:33.051Z,3.20
2018-07-05T11:51:12.647Z,3.50
2018-07-05T11:53:52.071Z,3.00
2018-07-05T11:56:31.586Z,3.00
2018-07-05T11:59:11.137Z,3.43
2018-07-05T12:01:50.586Z,3.70
2018-07-05T12:04:30.096Z,3.60
2018-07-05T12:07:09.609Z,3.17
2018-07-05T12:09:49.221Z,3.70
2018-07-05T12:12:28.677Z,3.13
2018-07-05T12:15:08.157Z,3.83
2018-07-05T12:17:47.761Z,3.50
2018-07-05T12:20:27.199Z,3.40
2018-07-05T12:23:06.609Z,3.40
2018-07-05T12:25:46.172Z,3.60
2018-07-05T12:28:25.699Z,3.60
2018-07-05T12:31:05.257Z,2.33
2018-07-05T12:33:44.788Z,3.10
2018-07-05T12:36:24.361Z,3.40
2018-07-05T12:39:04.377Z,3.67
2018-07-05T12:41:44.016Z,2.83
2018-07-05T12:44:23.546Z,3.13
2018-07-05T12:47:03.070Z,2.93
2018-07-05T12:49:42.656Z,3.33
2018-07-05T12:52:22.436Z,2.93
2018-07-05T12:55:01.748Z,2.80
2018-07-05T12:57:41.248Z,2.50
2018-07-05T13:00:20.794Z,2.40
2018-07-05T13:03:00.328Z,2.47
2018-07-05T13:05:39.909Z,1.87
2018-07-05T13:08:19.528Z,1.90
2018-07-05T13:10:59.316Z,1.97
2018-07-05T13:13:38.909Z,2.80
2018-07-05T13:16:18.303Z,2.30
2018-07-05T13:18:58.110Z,2.43
2018-07-05T13:21:37.653Z,2.07
2018-07-05T13:24:17.227Z,3.00
2018-07-05T13:26:56.632Z,3.10
2018-07-05T13:29:35.941Z,2.73
2018-07-05T13:32:15.395Z,2.37
2018-07-05T13:34:55.360Z,3.03
2018-07-05T13:37:34.810Z,2.80
2018-07-05T13:40:14.295Z,3.60
2018-07-05T13:42:53.913Z,3.30
2018-07-05T13:45:33.595Z,2.90
2018-07-05T13:48:13.112Z,3.20
2018-07-05T13:50:52.564Z,4.37
2018-07-05T13:53:32.084Z,4.27
2018-07-05T13:56:11.544Z,3.17
2018-07-05T13:58:51.012Z,3.23
2018-07-05T14:01:30.526Z,3.87
2018-07-05T14:04:10.214Z,3.50
2018-07-05T14:06:49.934Z,3.57
2018-07-05T14:09:29.388Z,3.77
2018-07-05T14:12:08.849Z,3.77
2018-07-05T14:14:48.372Z,4.30
2018-07-05T14:17:27.924Z,3.37
2018-07-05T14:20:07.526Z,3.40
2018-07-05T14:22:47.048Z,3.10
2018-07-05T14:25:26.560Z,3.10
2018-07-05T14:28:05.966Z,2.70
2018-07-05T14:30:45.533Z,2.80
2018-07-05T14:33:25.092Z,2.43
2018-07-05T14:36:04.659Z,2.60
2018-07-05T14:38:44.112Z,2.10
2018-07-05T14:41:23.776Z,2.03
2018-07-05T14:44:03.267Z,2.73
2018-07-05T14:46:43.017Z,2.33
2018-07-05T14:49:22.440Z,2.53
2018-07-05T14:52:01.884Z,2.50
2018-07-05T14:54:41.486Z,2.20
2018-07-05T14:57:21.008Z,2.33
2018-07-05T15:00:00.498Z,1.90
2018-07-05T15:02:39.962Z,2.60
2018-07-05T15:05:19.542Z,1.83
2018-07-05T15:07:58.980Z,1.80
2018-07-05T15:10:38.505Z,1.40
2018-07-05T15:13:17.985Z,1.57
2018-07-05T15:15:57.533Z,1.77
2018-07-05T15:18:37.238Z,1.33
2018-07-05T15:21:16.845Z,1.10
2018-07-05T15:23:56.318Z,1.40
2018-07-05T15:26:35.865Z,1.23
2018-07-05T15:29:15.515Z,0.90
2018-07-05T15:31:55.160Z,0.90
2018-07-05T15:34:34.669Z,1.20
2018-07-05T15:37:14.712Z,1.20
2018-07-05T15:39:54.262Z,1.20
2018-07-05T15:42:33.752Z,1.40
2018-07-05T15:45:13.233Z,1.73
2018-07-05T15:47:52.914Z,1.33
2018-07-05T15:50:32.571Z,2.20
2018-07-05T15:53:12.729Z,2.60
2018-07-05T15:55:52.371Z,1.70
2018-07-05T15:58:32.234Z,1.90
2018-07-05T16:01:11.691Z,1.73
2018-07-05T16:03:51.839Z,1.47
2018-07-05T16:06:38.576Z,1.10
2018-07-05T16:09:18.196Z,1.43
2018-07-05T16:11:57.730Z,0.90
2018-07-05T16:14:37.352Z,1.00
2018-07-05T16:17:16.925Z,1.20
2018-07-05T16:19:56.566Z,0.93
2018-07-05T16:22:36.130Z,1.10
2018-07-05T16:25:15.753Z,1.50
2018-07-05T16:27:55.413Z,1.27
2018-07-05T16:30:34.940Z,1.20
2018-07-05T16:33:14.523Z,1.13
2018-07-05T16:35:54.140Z,1.50
2018-07-05T16:38:33.642Z,1.10
2018-07-05T16:41:13.166Z,0.90
2018-07-05T16:43:52.763Z,1.10
2018-07-05T16:46:32.354Z,1.00
2018-07-05T16:49:11.952Z,1.20
2018-07-05T16:51:51.577Z,1.30
2018-07-05T16:54:31.057Z,0.90
2018-07-05T16:57:10.663Z,1.33
2018-07-05T16:59:50.212Z,2.43
2018-07-05T17:02:29.749Z,1.73
2018-07-05T17:05:09.274Z,1.20
2018-07-05T17:07:48.701Z,1.10
2018-07-05T17:10:28.295Z,1.40
2018-07-05T17:13:07.870Z,1.50
2018-07-05T17:15:47.482Z,1.43
2018-07-05T17:18:26.954Z,1.63
2018-07-05T17:21:06.308Z,1.27
2018-07-05T17:23:45.923Z,1.30
2018-07-05T17:26:25.494Z,0.97
2018-07-05T17:29:04.981Z,1.00
2018-07-05T17:31:44.546Z,0.97
2018-07-05T17:34:25.101Z,1.30
2018-07-05T17:37:04.721Z,1.03
2018-07-05T17:39:44.298Z,1.00
2018-07-05T17:42:23.870Z,0.93
2018-07-05T17:45:03.474Z,1.13
2018-07-05T17:47:42.965Z,1.00
2018-07-05T17:50:22.447Z,1.20
2018-07-05T17:53:02.098Z,1.80
2018-07-05T17:55:41.962Z,1.87
2018-07-05T17:58:21.612Z,2.50
2018-07-05T18:01:01.206Z,1.30
2018-07-05T18:03:40.820Z,1.53
2018-07-05T18:06:20.202Z,1.77
2018-07-05T18:08:59.711Z,1.83
2018-07-05T18:11:39.185Z,2.30
2018-07-05T18:14:18.547Z,1.50
2018-07-05T18:16:58.175Z,1.40
2018-07-05T18:19:37.548Z,1.60
2018-07-05T18:22:17.127Z,1.40
2018-07-05T18:24:56.642Z,1.37
2018-07-05T18:27:36.199Z,1.60
2018-07-05T18:30:15.894Z,1.83
2018-07-05T18:32:55.372Z,1.30
2018-07-05T18:35:34.964Z,1.73
2018-07-05T18:38:14.572Z,1.53
2018-07-05T18:40:54.194Z,1.70
2018-07-05T18:43:33.788Z,1.60
2018-07-05T18:46:13.384Z,1.40
2018-07-05T18:48:54.098Z,1.50
2018-07-05T18:51:33.591Z,1.47
2018-07-05T18:54:13.286Z,1.30
2018-07-05T18:56:52.841Z,1.15
2018-07-05T18:59:32.215Z,1.05
2018-07-05T19:02:11.704Z,1.10
2018-07-05T19:04:51.265Z,1.50
2018-07-05T19:07:30.847Z,1.67
2018-07-05T19:10:10.185Z,1.15
2018-07-05T19:12:49.724Z,1.35
2018-07-05T19:15:29.312Z,1.30
2018-07-05T19:18:08.795Z,2.05
2018-07-05T19:20:48.330Z,1.65
2018-07-05T19:23:27.974Z,1.55
2018-07-05T19:26:07.475Z,1.95
2018-07-05T19:28:47.232Z,1.90
2018-07-05T19:31:26.851Z,1.60
2018-07-05T19:34:06.416Z,1.70
2018-07-05T19:36:45.946Z,1.75
2018-07-05T19:39:25.611Z,2.10
2018-07-05T19:42:05.192Z,1.65
2018-07-05T19:44:44.678Z,1.70
2018-07-05T19:47:24.229Z,1.80
2018-07-05T19:50:04.068Z,2.00
2018-07-05T19:52:43.730Z,2.22
2018-07-05T19:55:23.432Z,2.70
2018-07-05T19:58:02.975Z,2.67
2018-07-05T20:00:42.794Z,2.83
2018-07-05T20:03:22.424Z,2.10
2018-07-05T20:06:05.565Z,2.60
2018-07-05T20:08:45.012Z,2.85
2018-07-05T20:11:26.464Z,2.90
2018-07-05T20:14:05.928Z,3.25
2018-07-05T20:16:45.750Z,2.90
2018-07-05T20:19:25.223Z,2.90
2018-07-05T20:22:07.999Z,3.15
2018-07-05T20:24:47.544Z,3.00
2018-07-05T20:27:27.124Z,2.62
2018-07-05T20:30:06.737Z,3.27
2018-07-05T20:32:46.350Z,3.60
2018-07-05T20:35:25.951Z,2.92
2018-07-05T20:38:05.504Z,3.27
2018-07-05T20:40:45.128Z,3.65
2018-07-05T20:43:24.648Z,3.77
2018-07-05T20:46:04.181Z,3.45
2018-07-05T20:48:43.708Z,3.40
2018-07-05T20:51:23.136Z,3.35
2018-07-05T20:54:02.744Z,2.70
2018-07-05T20:56:42.464Z,3.30
2018-07-05T20:59:22.133Z,3.62
2018-07-05T21:02:01.727Z,3.25
2018-07-05T21:04:41.265Z,3.20
2018-07-05T21:07:20.757Z,3.10
2018-07-05T21:10:00.254Z,3.33
2018-07-05T21:12:40.045Z,3.08
2018-07-05T21:15:19.786Z,3.45
2018-07-05T21:17:59.319Z,3.08
2018-07-05T21:20:38.970Z,3.37
2018-07-05T21:23:18.352Z,3.45
2018-07-05T21:25:57.848Z,2.70
2018-07-05T21:28:37.517Z,4.20
2018-07-05T21:31:16.941Z,2.42
2018-07-05T21:33:56.431Z,2.90
2018-07-05T21:36:35.985Z,2.50
2018-07-05T21:39:15.354Z,3.10
2018-07-05T21:41:54.964Z,2.20
2018-07-05T21:44:34.436Z,2.52
2018-07-05T21:47:14.015Z,2.35
2018-07-05T21:49:54.702Z,2.52
2018-07-05T21:52:34.185Z,3.47
2018-07-05T21:55:13.815Z,2.90
2018-07-05T21:57:53.336Z,3.50
2018-07-05T22:00:32.798Z,3.45
2018-07-05T22:03:12.242Z,3.10
2018-07-05T22:05:51.780Z,4.83
2018-07-05T22:08:31.171Z,4.30
2018-07-05T22:11:10.768Z,4.00
2018-07-05T22:13:50.263Z,4.00
2018-07-05T22:16:29.918Z,4.08
2018-07-05T22:19:16.009Z,4.50
2018-07-05T22:22:01.311Z,4.17
2018-07-05T22:24:46.347Z,3.20
2018-07-05T22:27:32.340Z,3.80
2018-07-05T22:32:24.410Z,3.47
2018-07-05T22:35:03.961Z,3.87
2018-07-05T22:37:43.473Z,4.90
2018-07-05T22:40:22.830Z,4.78
2018-07-05T22:43:02.446Z,4.35
2018-07-05T22:45:41.980Z,5.20
2018-07-05T22:48:21.432Z,3.62
2018-07-05T22:51:00.813Z,5.00
2018-07-05T22:53:40.252Z,4.72
2018-07-05T22:56:19.874Z,4.45
2018-07-05T22:58:59.327Z,5.50
2018-07-05T23:01:38.771Z,5.80
2018-07-05T23:04:18.409Z,5.22
2018-07-05T23:06:58.026Z,5.33
2018-07-05T23:09:37.472Z,5.40
2018-07-05T23:12:17.036Z,4.75
2018-07-05T23:14:56.528Z,4.75
2018-07-05T23:17:36.104Z,4.90
2018-07-05T23:20:15.750Z,5.20
2018-07-05T23:22:55.176Z,5.35
2018-07-05T23:25:34.620Z,5.55
2018-07-05T23:28:14.254Z,5.20
2018-07-05T23:30:53.790Z,4.95
2018-07-05T23:33:33.348Z,4.97
2018-07-05T23:36:12.974Z,5.62
2018-07-05T23:38:52.473Z,5.12
2018-07-05T23:41:32.015Z,5.65
2018-07-05T23:44:11.364Z,5.40
2018-07-05T23:46:50.901Z,4.80
2018-07-05T23:49:30.494Z,4.40
2018-07-05T23:52:10.064Z,4.33
2018-07-05T23:54:49.477Z,4.95
2018-07-05T23:57:29.062Z,5.65
